RJBM(METAR)
12/11 17:00
METAR RJBM 110800Z 09003KT 9999 -RA FEW008 SCT030 OVC060 06/05 Q1023
RMK 1ST008 3CU030 8SC060 A3022=
戻る
トップページへ戻る
IMOC Co,.Ltd.